Time;durP1;ratioP1;P1;durP2;ratioP2;P2;SDS_P1;SDS_P2;PMS_P1;PMS_P2;Temp;Humidity;BMP_temperature;BMP_pressure;BME280_temperature;BME280_humidity;BME280_pressure;Samples;Min_cycle;Max_cycle;Signal;HPM_P1;HPM_P2
2024/01/21 00:01:03;;;;;;;8.18;5.15;;;;;;;-5.97;100.00;99675.91;15292177;19;20484;-58
2024/01/21 00:06:28;;;;;;;7.03;4.80;;;;;;;-6.01;100.00;99670.78;15283387;19;20021;-59
2024/01/21 00:11:55;;;;;;;7.32;4.72;;;;;;;-6.09;100.00;99661.25;15288522;19;20031;-60
2024/01/21 00:17:19;;;;;;;7.97;4.63;;;;;;;-6.16;100.00;99656.13;15285361;19;20038;-59
2024/01/21 00:22:44;;;;;;;6.43;4.97;;;;;;;-6.20;100.00;99656.22;15291913;19;20033;-58
2024/01/21 00:28:18;;;;;;;8.50;5.43;;;;;;;-6.24;100.00;99654.53;15283926;19;20035;-58
2024/01/21 00:33:43;;;;;;;5.75;4.85;;;;;;;-6.27;100.00;99638.81;15287218;19;20480;-58
2024/01/21 00:39:07;;;;;;;8.50;5.35;;;;;;;-6.27;100.00;99649.31;15289296;19;20028;-58
2024/01/21 00:44:34;;;;;;;7.90;5.15;;;;;;;-6.28;100.00;99644.97;15283552;19;20015;-58
2024/01/21 00:49:59;;;;;;;8.02;5.45;;;;;;;-6.23;100.00;99639.63;15287303;19;20031;-59
2024/01/21 00:55:25;;;;;;;7.30;4.88;;;;;;;-6.22;100.00;99630.88;15286092;19;20032;-59
2024/01/21 01:00:52;;;;;;;8.07;5.93;;;;;;;-6.22;100.00;99626.50;15290875;19;20471;-57
2024/01/21 01:06:17;;;;;;;8.82;5.75;;;;;;;-6.20;100.00;99629.97;15272094;19;20037;-59
2024/01/21 01:11:41;;;;;;;7.15;5.70;;;;;;;-6.15;100.00;99631.63;15288123;19;20029;-58
2024/01/21 01:17:09;;;;;;;9.45;6.15;;;;;;;-6.09;100.00;99631.56;15028731;19;5001614;-58
2024/01/21 01:22:35;;;;;;;7.50;5.75;;;;;;;-6.01;100.00;99627.03;15289731;19;20755;-59
2024/01/21 01:28:06;;;;;;;9.52;6.00;;;;;;;-5.97;100.00;99618.19;15285516;19;20022;-59
2024/01/21 01:33:33;;;;;;;8.85;5.85;;;;;;;-5.95;100.00;99618.16;15285983;19;20041;-57
2024/01/21 01:38:58;;;;;;;9.07;5.70;;;;;;;-5.93;100.00;99621.63;15287805;19;20363;-58
2024/01/21 01:44:23;;;;;;;6.85;5.18;;;;;;;-5.91;100.00;99598.84;15286203;19;20384;-58
2024/01/21 01:49:50;;;;;;;6.75;4.93;;;;;;;-5.94;100.00;99589.22;15284697;19;20014;-57
2024/01/21 01:55:15;;;;;;;6.53;4.78;;;;;;;-5.96;100.00;99582.28;15282700;19;20023;-58
2024/01/21 02:00:40;;;;;;;6.10;4.60;;;;;;;-5.99;100.00;99572.72;15289619;19;20078;-57
2024/01/21 02:06:09;;;;;;;6.50;4.60;;;;;;;-5.96;100.00;99563.94;15277325;19;21015;-58
2024/01/21 02:11:34;;;;;;;7.95;4.63;;;;;;;-5.86;100.00;99577.75;15283887;19;20015;-57
2024/01/21 02:17:00;;;;;;;7.70;4.75;;;;;;;-5.74;100.00;99567.00;15277751;19;20018;-57
2024/01/21 02:22:29;;;;;;;7.82;4.45;;;;;;;-5.64;100.00;99570.28;15282798;19;20021;-58
2024/01/21 02:28:03;;;;;;;6.13;4.65;;;;;;;-5.58;100.00;99575.44;15281384;19;20082;-59
2024/01/21 02:33:28;;;;;;;6.18;4.80;;;;;;;-5.56;100.00;99552.66;15304483;19;20496;-60
2024/01/21 02:38:52;;;;;;;7.07;4.68;;;;;;;-5.57;100.00;99556.16;15024663;19;5001391;-59
2024/01/21 02:44:19;;;;;;;9.00;5.32;;;;;;;-5.53;100.00;99549.09;15282673;19;20014;-63
2024/01/21 02:49:44;;;;;;;6.88;5.15;;;;;;;-5.52;100.00;99535.91;15281779;19;20015;-62
2024/01/21 02:55:09;;;;;;;9.50;5.75;;;;;;;-5.51;100.00;99528.91;15274423;19;20498;-63
2024/01/21 03:00:37;;;;;;;7.30;5.53;;;;;;;-5.47;100.00;99539.31;15279068;19;20021;-63
2024/01/21 03:06:02;;;;;;;7.20;5.47;;;;;;;-5.40;100.00;99534.81;15271552;19;20014;-63
2024/01/21 03:11:26;;;;;;;8.63;5.30;;;;;;;-5.38;100.00;99524.25;15280139;19;20449;-60
2024/01/21 03:16:56;;;;;;;7.38;5.10;;;;;;;-5.38;100.00;99512.00;15266725;19;20363;-62
2024/01/21 03:22:21;;;;;;;6.93;5.30;;;;;;;-5.40;100.00;99505.91;15279398;19;20024;-62
2024/01/21 03:27:52;;;;;;;8.60;5.40;;;;;;;-5.40;100.00;99500.66;15272097;19;20024;-61
2024/01/21 03:33:21;;;;;;;7.28;5.05;;;;;;;-5.37;100.00;99499.72;15277330;19;20038;-63
2024/01/21 03:38:46;;;;;;;7.30;5.00;;;;;;;-5.33;100.00;99491.72;15277599;19;20369;-63
2024/01/21 03:44:12;;;;;;;8.32;4.82;;;;;;;-5.27;100.00;99483.72;15277346;19;20082;-62
2024/01/21 03:49:39;;;;;;;6.55;4.55;;;;;;;-5.18;100.00;99482.66;15273259;19;20027;-61
2024/01/21 03:55:04;;;;;;;6.40;4.20;;;;;;;-5.15;100.00;99472.03;15267686;19;20019;-63
2024/01/21 04:00:29;;;;;;;4.90;4.00;;;;;;;-5.17;100.00;99471.22;15270621;19;20019;-61
2024/01/21 04:05:56;;;;;;;5.38;4.13;;;;;;;-5.09;100.00;99468.41;15274871;19;20046;-62
2024/01/21 04:11:21;;;;;;;5.90;3.75;;;;;;;-5.16;100.00;99466.84;15273657;19;20090;-62
2024/01/21 04:16:46;;;;;;;5.55;3.38;;;;;;;-5.11;100.00;99449.19;15268930;19;20506;-62
2024/01/21 04:22:14;;;;;;;4.40;2.78;;;;;;;-5.06;100.00;99454.34;15276660;19;20500;-63
2024/01/21 04:27:45;;;;;;;3.78;3.13;;;;;;;-4.98;100.00;99450.59;15269080;19;20017;-60
2024/01/21 04:33:10;;;;;;;3.55;3.00;;;;;;;-4.90;100.00;99454.84;15273267;19;20452;-62
2024/01/21 04:38:37;;;;;;;4.43;2.90;;;;;;;-4.85;100.00;99450.31;15289373;19;20026;-62
2024/01/21 04:44:02;;;;;;;3.38;2.60;;;;;;;-4.86;100.00;99432.81;15288154;19;20029;-61
2024/01/21 04:49:26;;;;;;;3.20;2.80;;;;;;;-4.86;100.00;99417.03;15287162;19;20082;-63
2024/01/21 04:54:56;;;;;;;3.22;2.58;;;;;;;-4.86;100.00;99415.28;15286040;19;20015;-65
2024/01/21 05:00:23;;;;;;;3.03;2.30;;;;;;;-4.71;100.00;99415.78;15282142;19;20045;-62
2024/01/21 05:05:48;;;;;;;4.85;2.42;;;;;;;-4.60;100.00;99399.72;15278009;19;20347;-65
2024/01/21 05:11:15;;;;;;;2.47;2.00;;;;;;;-4.56;100.00;99385.59;15285484;19;20757;-64
2024/01/21 05:16:41;;;;;;;2.35;1.95;;;;;;;-4.53;100.00;99377.63;15273882;19;20024;-65
2024/01/21 05:22:06;;;;;;;2.83;1.95;;;;;;;-4.42;100.00;99388.69;15285312;19;20018;-64
2024/01/21 05:27:34;;;;;;;2.25;1.90;;;;;;;-4.23;100.00;99375.84;15274861;19;20364;-61
2024/01/21 05:32:58;;;;;;;1.98;1.60;;;;;;;-4.07;100.00;99378.03;15282191;19;20018;-65
2024/01/21 05:38:23;;;;;;;2.33;1.80;;;;;;;-3.93;100.00;99372.34;15280426;19;20138;-63
2024/01/21 05:43:50;;;;;;;3.10;2.42;;;;;;;-3.80;100.00;99351.78;15275970;19;20026;-63
2024/01/21 05:49:16;;;;;;;2.53;1.60;;;;;;;-3.75;100.00;99345.47;15280775;19;20035;-65
2024/01/21 05:54:40;;;;;;;2.15;1.77;;;;;;;-3.69;100.00;99347.06;15281838;19;20018;-62
2024/01/21 06:00:10;;;;;;;2.35;1.65;;;;;;;-3.62;100.00;99359.09;15283031;19;20018;-64
2024/01/21 06:05:34;;;;;;;1.92;1.38;;;;;;;-3.55;100.00;99354.50;15282881;19;20117;-64
2024/01/21 06:10:59;;;;;;;1.45;1.30;;;;;;;-3.39;100.00;99341.69;15284788;19;20059;-65
2024/01/21 06:16:27;;;;;;;1.80;1.52;;;;;;;-3.33;100.00;99352.03;15273665;19;20017;-64
2024/01/21 06:21:52;;;;;;;1.23;1.13;;;;;;;-3.32;100.00;99352.88;15273310;19;20022;-64
2024/01/21 06:27:23;;;;;;;2.58;1.50;;;;;;;-3.25;100.00;99341.25;15270484;19;20050;-64
2024/01/21 06:32:50;;;;;;;1.40;1.30;;;;;;;-3.15;100.00;99339.16;15280980;19;20029;-65
2024/01/21 06:38:21;;;;;;;1.35;1.25;;;;;;;-3.08;100.00;99338.03;15272100;19;20010;-64
2024/01/21 06:43:40;;;;;;;1.73;1.55;;;;;;;-3.04;100.00;99341.44;15279627;19;20018;-65
2024/01/21 06:49:07;;;;;;;1.65;1.38;;;;;;;-2.94;100.00;99348.09;15280990;19;20578;-64
2024/01/21 06:54:33;;;;;;;1.35;1.20;;;;;;;-2.90;100.00;99349.72;15272599;19;20011;-64
2024/01/21 06:59:59;;;;;;;1.45;1.25;;;;;;;-2.81;100.00;99356.44;15251868;19;20038;-65
2024/01/21 07:05:26;;;;;;;4.13;1.40;;;;;;;-2.77;100.00;99351.94;15273489;19;20026;-64
2024/01/21 07:10:51;;;;;;;1.40;1.30;;;;;;;-2.71;100.00;99354.34;15273741;19;20014;-64
2024/01/21 07:16:15;;;;;;;1.25;1.15;;;;;;;-2.70;100.00;99348.16;15277058;19;20018;-64
2024/01/21 07:21:43;;;;;;;1.70;1.30;;;;;;;-2.73;100.00;99350.91;15280467;19;20078;-64
2024/01/21 07:27:14;;;;;;;1.40;1.30;;;;;;;-2.73;100.00;99340.34;15273206;19;20026;-64
2024/01/21 07:32:39;;;;;;;2.60;2.40;;;;;;;-2.77;100.00;99331.69;15274529;19;20021;-64
2024/01/21 07:38:06;;;;;;;1.95;1.30;;;;;;;-2.79;100.00;99325.59;15269319;19;20038;-64
2024/01/21 07:43:32;;;;;;;1.50;1.40;;;;;;;-2.74;100.00;99312.25;15271622;19;20010;-61
2024/01/21 07:48:56;;;;;;;1.63;1.42;;;;;;;-2.69;100.00;99321.72;15276219;19;20022;-64
2024/01/21 07:54:23;;;;;;;2.00;1.50;;;;;;;-2.56;100.00;99330.06;15275331;19;20042;-63
2024/01/21 07:59:48;;;;;;;2.35;1.40;;;;;;;-2.40;100.00;99324.19;15276692;19;20018;-64
2024/01/21 08:05:15;;;;;;;1.35;1.25;;;;;;;-2.24;100.00;99320.06;15275040;19;20026;-63
2024/01/21 08:10:42;;;;;;;1.55;1.35;;;;;;;-2.07;100.00;99313.31;15288866;19;20018;-65
2024/01/21 08:16:07;;;;;;;1.55;1.30;;;;;;;-1.92;100.00;99303.91;15274646;19;20033;-64
2024/01/21 08:21:32;;;;;;;2.28;1.27;;;;;;;-1.79;100.00;99296.34;15290413;19;20014;-62
2024/01/21 08:27:08;;;;;;;1.23;1.13;;;;;;;-1.65;100.00;99295.81;15279976;19;20018;-64
2024/01/21 08:32:34;;;;;;;1.50;1.20;;;;;;;-1.57;100.00;99289.25;15283074;19;20858;-63
2024/01/21 08:38:00;;;;;;;1.48;1.38;;;;;;;-1.48;100.00;99287.19;15285726;19;20020;-65
2024/01/21 08:43:28;;;;;;;1.30;1.20;;;;;;;-1.40;100.00;99282.44;15290404;19;20019;-64
2024/01/21 08:48:52;;;;;;;1.20;1.10;;;;;;;-1.32;100.00;99280.31;15287155;19;20018;-65
2024/01/21 08:54:18;;;;;;;1.20;1.10;;;;;;;-1.21;100.00;99313.38;15283225;19;20023;-65
2024/01/21 08:59:45;;;;;;;1.35;1.10;;;;;;;-1.11;100.00;99325.28;15285785;19;20074;-64
2024/01/21 09:05:10;;;;;;;1.23;1.13;;;;;;;-1.01;100.00;99316.03;15286556;19;20403;-65
2024/01/21 09:10:37;;;;;;;1.75;1.20;;;;;;;-0.97;100.00;99291.16;15284344;19;20019;-64
2024/01/21 09:16:06;;;;;;;1.40;1.30;;;;;;;-0.93;100.00;99297.16;15279980;19;20010;-64
2024/01/21 09:21:33;;;;;;;1.90;1.48;;;;;;;-0.88;100.00;99286.41;15275175;19;20025;-65
2024/01/21 09:27:04;;;;;;;1.30;1.00;;;;;;;-0.84;100.00;99290.63;15278511;19;20018;-65
2024/01/21 09:32:33;;;;;;;1.20;1.10;;;;;;;-0.80;100.00;99279.84;15288124;19;20023;-65
2024/01/21 09:37:57;;;;;;;2.55;1.20;;;;;;;-0.70;100.00;99263.53;15285641;19;20018;-65
2024/01/21 09:43:24;;;;;;;1.33;1.10;;;;;;;-0.58;100.00;99256.84;15287871;19;20014;-65
2024/01/21 09:48:52;;;;;;;1.48;1.20;;;;;;;-0.36;100.00;99249.63;15288955;19;20031;-64
2024/01/21 09:54:18;;;;;;;1.15;1.05;;;;;;;-0.17;100.00;99256.69;15025440;19;5001713;-65
2024/01/21 09:59:43;;;;;;;2.67;1.00;;;;;;;-0.04;100.00;99260.47;15286124;19;20085;-65
2024/01/21 10:05:13;;;;;;;2.97;1.10;;;;;;;0.10;100.00;99257.19;15296604;19;20429;-64
2024/01/21 10:10:37;;;;;;;1.17;1.08;;;;;;;0.22;100.00;99253.06;15288244;19;20014;-64
2024/01/21 10:16:04;;;;;;;1.20;1.10;;;;;;;0.41;100.00;99273.38;15276410;19;20039;-65
2024/01/21 10:21:31;;;;;;;1.38;1.20;;;;;;;0.55;100.00;99247.00;15280758;19;20029;-64
2024/01/21 10:26:56;;;;;;;1.10;1.00;;;;;;;0.68;100.00;99230.47;15271578;19;20086;-65
2024/01/21 10:32:22;;;;;;;0.70;0.70;;;;;;;0.80;100.00;99219.25;15280427;19;20018;-65
2024/01/21 10:37:50;;;;;;;1.20;1.10;;;;;;;1.03;100.00;99188.84;15277881;19;20364;-65
2024/01/21 10:43:16;;;;;;;1.02;0.80;;;;;;;1.18;100.00;99189.81;15279406;19;20050;-65
2024/01/21 10:48:43;;;;;;;1.20;1.05;;;;;;;1.30;100.00;99179.47;15278519;19;20022;-64
2024/01/21 10:54:16;;;;;;;1.15;1.08;;;;;;;1.35;100.00;99180.94;15277888;19;20010;-65
2024/01/21 10:59:42;;;;;;;1.20;1.10;;;;;;;1.35;100.00;99190.72;15270062;19;20014;-66
2024/01/21 11:05:09;;;;;;;1.05;0.95;;;;;;;1.36;100.00;99184.44;15277535;19;20018;-65
2024/01/21 11:10:41;;;;;;;2.55;1.10;;;;;;;1.33;100.00;99190.78;15278282;19;20618;-65
2024/01/21 11:16:05;;;;;;;1.34;1.10;;;;;;;1.33;100.00;99224.47;15018118;19;5001546;-65
2024/01/21 11:21:32;;;;;;;1.48;1.13;;;;;;;1.33;100.00;99233.25;15274778;19;20614;-65
2024/01/21 11:27:01;;;;;;;1.45;1.17;;;;;;;1.26;100.00;99236.31;15272131;19;20023;-65
2024/01/21 11:32:28;;;;;;;3.58;1.00;;;;;;;1.24;100.00;99223.16;15271169;19;20082;-68
2024/01/21 11:37:54;;;;;;;1.33;1.10;;;;;;;1.28;100.00;99218.53;15273802;19;20025;-66
2024/01/21 11:43:22;;;;;;;1.50;1.27;;;;;;;1.35;100.00;99223.44;15281016;19;20014;-66
2024/01/21 11:48:46;;;;;;;2.20;1.25;;;;;;;1.39;100.00;99216.16;15292269;19;20471;-66
2024/01/21 11:54:12;;;;;;;2.90;1.50;;;;;;;1.43;100.00;99195.59;15287657;19;20559;-64
2024/01/21 11:59:40;;;;;;;2.35;1.70;;;;;;;1.45;100.00;99191.94;15288862;19;20370;-67
2024/01/21 12:05:06;;;;;;;3.60;1.42;;;;;;;1.51;100.00;99194.22;15281820;19;20019;-65
2024/01/21 12:10:32;;;;;;;1.88;1.48;;;;;;;1.59;100.00;99190.31;15293629;19;20018;-66
2024/01/21 12:16:00;;;;;;;3.60;1.70;;;;;;;1.62;100.00;99139.66;15290762;19;20025;-67
2024/01/21 12:21:25;;;;;;;4.80;4.10;;;;;;;1.60;100.00;99112.31;15294666;19;20015;-66
2024/01/21 12:26:57;;;;;;;3.55;1.67;;;;;;;1.62;100.00;99116.63;15285843;19;20027;-66
2024/01/21 12:32:27;;;;;;;2.45;1.75;;;;;;;1.68;100.00;99131.34;15290299;19;20015;-67
2024/01/21 12:37:58;;;;;;;1.83;1.70;;;;;;;1.59;100.00;99156.63;15289053;19;20028;-67
2024/01/21 12:43:23;;;;;;;3.28;1.80;;;;;;;1.52;100.00;99104.81;15289255;19;20011;-67
2024/01/21 12:48:50;;;;;;;2.28;1.83;;;;;;;1.57;100.00;99083.28;15288236;19;20018;-67
2024/01/21 12:54:17;;;;;;;3.17;1.83;;;;;;;1.60;100.00;99081.31;15286402;19;20037;-67
2024/01/21 12:59:43;;;;;;;2.85;2.28;;;;;;;1.63;100.00;99059.03;15283936;19;20081;-66
2024/01/21 13:05:11;;;;;;;3.45;2.20;;;;;;;1.64;100.00;99124.50;15280267;19;20018;-67
2024/01/21 13:10:35;;;;;;;5.75;2.03;;;;;;;1.58;100.00;99103.59;15287008;19;20014;-67
2024/01/21 13:16:03;;;;;;;1.92;1.73;;;;;;;1.57;100.00;99076.16;15281885;19;20045;-67
2024/01/21 13:21:31;;;;;;;3.08;2.30;;;;;;;1.60;100.00;99049.44;15287012;19;20019;-66
2024/01/21 13:27:09;;;;;;;2.20;2.00;;;;;;;1.55;100.00;99115.22;15279860;19;21389;-67
2024/01/21 13:32:34;;;;;;;2.40;2.10;;;;;;;1.54;100.00;99124.13;15282560;19;20429;-66
2024/01/21 13:38:04;;;;;;;3.05;2.20;;;;;;;1.80;100.00;99141.28;15278477;19;20010;-67
2024/01/21 13:43:31;;;;;;;2.53;1.90;;;;;;;2.05;100.00;99139.88;15284291;19;20058;-66
2024/01/21 13:48:56;;;;;;;2.75;2.40;;;;;;;2.12;100.00;99141.19;15282992;19;20476;-66
2024/01/21 13:54:24;;;;;;;2.78;1.92;;;;;;;2.06;100.00;99149.53;15282079;19;20027;-67
2024/01/21 13:59:48;;;;;;;3.72;2.70;;;;;;;1.99;100.00;99140.19;15277456;19;20404;-66
2024/01/21 14:05:15;;;;;;;3.63;2.63;;;;;;;1.97;100.00;99142.09;15278284;19;20811;-66
2024/01/21 14:10:42;;;;;;;7.30;2.20;;;;;;;2.04;100.00;99159.41;15276416;19;20010;-66
2024/01/21 14:16:08;;;;;;;3.38;2.50;;;;;;;2.04;100.00;99164.72;15278528;19;20364;-66
2024/01/21 14:21:32;;;;;;;3.13;2.17;;;;;;;2.01;100.00;99180.84;15281522;19;20022;-66
2024/01/21 14:27:01;;;;;;;3.15;2.58;;;;;;;2.04;100.00;99180.69;15275592;19;20010;-67
2024/01/21 14:32:25;;;;;;;3.38;2.90;;;;;;;2.00;100.00;99160.53;15280859;19;20006;-66
2024/01/21 14:37:50;;;;;;;3.00;2.53;;;;;;;1.92;100.00;99160.13;15279135;19;20015;-67
2024/01/21 14:43:17;;;;;;;3.97;2.50;;;;;;;1.91;100.00;99155.75;15270175;19;20847;-67
2024/01/21 14:48:44;;;;;;;2.40;2.13;;;;;;;1.82;100.00;99181.03;15276624;19;20026;-67
2024/01/21 14:54:08;;;;;;;2.17;1.88;;;;;;;1.69;100.00;99167.59;15275366;19;20041;-67
2024/01/21 14:59:36;;;;;;;2.75;2.30;;;;;;;1.58;100.00;99172.66;15276794;19;20018;-67
2024/01/21 15:05:00;;;;;;;2.90;2.22;;;;;;;1.47;100.00;99176.75;15271820;19;20025;-67
2024/01/21 15:10:25;;;;;;;4.07;2.53;;;;;;;1.35;100.00;99172.97;15274498;19;20037;-67
2024/01/21 15:15:52;;;;;;;3.15;2.40;;;;;;;1.30;100.00;99190.09;15268072;19;20022;-67
2024/01/21 15:21:17;;;;;;;3.85;2.20;;;;;;;1.29;100.00;99196.34;15274169;19;20508;-66
2024/01/21 15:26:41;;;;;;;3.42;2.40;;;;;;;1.25;100.00;99197.44;15270481;19;20090;-67
2024/01/21 15:32:09;;;;;;;3.40;2.40;;;;;;;1.17;100.00;99212.00;15276377;19;20015;-67
2024/01/21 15:37:35;;;;;;;3.88;2.30;;;;;;;1.10;100.00;99209.75;15276247;19;20471;-67
2024/01/21 15:43:01;;;;;;;3.85;2.35;;;;;;;1.05;100.00;99196.72;15277518;19;20046;-66
2024/01/21 15:48:29;;;;;;;2.63;2.10;;;;;;;0.98;100.00;99190.03;15268387;19;20042;-66
2024/01/21 15:53:54;;;;;;;3.67;2.28;;;;;;;0.90;100.00;99183.31;15277251;19;20388;-67
2024/01/21 15:59:18;;;;;;;3.25;2.17;;;;;;;0.88;100.00;99187.84;15272224;19;20100;-67
2024/01/21 16:04:46;;;;;;;2.80;2.20;;;;;;;0.89;100.00;99180.75;15274734;19;20017;-66
2024/01/21 16:10:11;;;;;;;2.63;2.20;;;;;;;0.92;100.00;99178.81;15274623;19;20010;-66
2024/01/21 16:15:36;;;;;;;4.15;2.70;;;;;;;0.91;100.00;99179.75;15270403;19;20015;-66
2024/01/21 16:21:17;;;;;;;3.85;2.50;;;;;;;0.89;100.00;99168.34;15262272;19;20524;-66
2024/01/21 16:26:42;;;;;;;2.72;2.20;;;;;;;0.86;100.00;99171.19;15266007;19;20025;-66
2024/01/21 16:32:07;;;;;;;2.70;2.33;;;;;;;0.85;100.00;99180.06;15287236;19;20028;-66
2024/01/21 16:37:35;;;;;;;2.85;2.20;;;;;;;0.77;100.00;99188.44;15289393;19;20441;-66
2024/01/21 16:42:59;;;;;;;3.72;2.40;;;;;;;0.74;100.00;99187.75;15286678;19;20025;-66
2024/01/21 16:48:25;;;;;;;3.97;2.63;;;;;;;0.68;100.00;99182.75;15291212;19;20021;-67
2024/01/21 16:53:53;;;;;;;4.05;2.40;;;;;;;0.65;100.00;99182.94;15276792;19;20029;-66
2024/01/21 16:59:21;;;;;;;3.53;2.60;;;;;;;0.61;100.00;99177.78;15249689;19;20088;-67
2024/01/21 17:04:45;;;;;;;5.18;2.78;;;;;;;0.55;100.00;99174.56;15286077;19;20388;-65
2024/01/21 17:10:19;;;;;;;5.32;2.92;;;;;;;0.49;100.00;99159.84;15280201;19;20371;-67
2024/01/21 17:15:43;;;;;;;5.05;3.30;;;;;;;0.48;100.00;99152.81;15280878;19;20477;-66
2024/01/21 17:21:08;;;;;;;4.00;2.83;;;;;;;0.49;100.00;99169.56;15283115;19;20061;-68
2024/01/21 17:26:35;;;;;;;3.55;2.83;;;;;;;0.47;100.00;99159.06;15253332;19;20015;-67
2024/01/21 17:32:00;;;;;;;5.32;3.22;;;;;;;0.40;100.00;99147.06;15281541;19;20491;-68
2024/01/21 17:37:24;;;;;;;4.57;2.92;;;;;;;0.40;100.00;99152.38;15280515;19;20013;-66
2024/01/21 17:42:54;;;;;;;3.50;2.70;;;;;;;0.39;100.00;99129.44;15285185;19;20392;-67
2024/01/21 17:48:19;;;;;;;4.30;2.70;;;;;;;0.41;100.00;99138.19;15282061;19;20039;-66
2024/01/21 17:53:46;;;;;;;3.20;2.63;;;;;;;0.48;100.00;99133.38;15282872;19;20024;-66
2024/01/21 17:59:13;;;;;;;4.93;2.92;;;;;;;0.51;100.00;99136.75;15275008;19;20025;-66
2024/01/21 18:04:38;;;;;;;3.75;3.00;;;;;;;0.51;100.00;99135.88;15281491;19;20471;-66
2024/01/21 18:10:02;;;;;;;5.25;3.25;;;;;;;0.49;100.00;99141.28;15280103;19;20022;-66
2024/01/21 18:15:31;;;;;;;4.68;3.08;;;;;;;0.47;100.00;99147.63;15281028;19;20345;-66
2024/01/21 18:20:58;;;;;;;4.97;3.42;;;;;;;0.51;100.00;99131.47;15280169;19;20022;-66
2024/01/21 18:26:23;;;;;;;4.03;2.95;;;;;;;0.56;100.00;99136.53;15275835;19;20033;-65
2024/01/21 18:31:50;;;;;;;5.38;3.20;;;;;;;0.58;100.00;99132.00;15279551;19;20078;-66
2024/01/21 18:37:15;;;;;;;4.00;2.92;;;;;;;0.60;100.00;99122.16;15282235;19;20025;-66
2024/01/21 18:42:40;;;;;;;5.95;4.20;;;;;;;0.65;100.00;99121.94;15279195;19;20495;-66
2024/01/21 18:48:09;;;;;;;4.95;2.92;;;;;;;0.71;100.00;99100.38;15282282;19;20022;-66
2024/01/21 18:53:33;;;;;;;4.53;2.90;;;;;;;0.73;100.00;99090.53;15277275;19;20014;-66
2024/01/21 18:58:59;;;;;;;4.28;3.00;;;;;;;0.75;100.00;99086.03;15276668;19;20017;-66
2024/01/21 19:04:26;;;;;;;4.53;3.17;;;;;;;0.70;100.00;99080.09;15277122;19;20014;-66
2024/01/21 19:10:01;;;;;;;4.53;3.10;;;;;;;0.69;100.00;99075.72;15282446;19;20534;-66
2024/01/21 19:15:25;;;;;;;4.00;2.80;;;;;;;0.76;100.00;99106.31;15300619;19;20039;-70
2024/01/21 19:20:53;;;;;;;5.00;3.15;;;;;;;0.93;100.00;99092.13;15276792;19;20078;-68
2024/01/21 19:26:17;;;;;;;3.58;2.92;;;;;;;1.13;100.00;99098.13;15272177;19;20018;-67
2024/01/21 19:31:42;;;;;;;5.28;3.47;;;;;;;1.34;100.00;99101.38;15273103;19;20018;-67
2024/01/21 19:37:09;;;;;;;4.53;3.20;;;;;;;1.35;100.00;99095.97;15272790;19;20361;-68
2024/01/21 19:42:34;;;;;;;4.60;2.90;;;;;;;1.40;100.00;99077.13;15266423;19;20098;-68
2024/01/21 19:47:59;;;;;;;4.78;3.08;;;;;;;1.44;100.00;99064.53;15275842;19;20029;-68
2024/01/21 19:53:28;;;;;;;4.68;2.92;;;;;;;1.59;100.00;99068.13;15272406;19;20039;-67
2024/01/21 19:58:52;;;;;;;7.57;3.58;;;;;;;1.69;100.00;99021.50;15272173;19;20430;-67
2024/01/21 20:04:17;;;;;;;4.70;3.00;;;;;;;1.73;100.00;99032.78;15265197;19;20515;-65
2024/01/21 20:09:44;;;;;;;5.25;3.47;;;;;;;1.77;100.00;99036.97;15271783;19;20015;-67
2024/01/21 20:15:10;;;;;;;5.88;3.22;;;;;;;1.74;100.00;99024.72;15284083;19;20702;-70
2024/01/21 20:20:34;;;;;;;4.25;3.40;;;;;;;1.72;100.00;99010.66;15289244;19;20089;-69
2024/01/21 20:26:04;;;;;;;5.60;3.33;;;;;;;1.72;100.00;99037.22;15284221;19;20014;-68
2024/01/21 20:31:30;;;;;;;6.85;3.47;;;;;;;1.74;100.00;99027.38;15274402;19;20014;-68
2024/01/21 20:36:55;;;;;;;4.68;3.20;;;;;;;1.74;100.00;99019.41;15269071;19;20082;-68
2024/01/21 20:42:22;;;;;;;5.57;3.33;;;;;;;1.75;100.00;99025.59;15280211;19;20024;-68
2024/01/21 20:47:48;;;;;;;6.10;3.97;;;;;;;1.74;100.00;99038.00;15287231;19;20022;-67
2024/01/21 20:53:13;;;;;;;4.70;3.15;;;;;;;1.76;100.00;99036.13;15291275;19;20021;-67
2024/01/21 20:58:42;;;;;;;5.50;3.35;;;;;;;1.77;100.00;99029.84;15300502;19;20018;-66
2024/01/21 21:04:06;;;;;;;4.65;3.45;;;;;;;1.76;100.00;99032.63;15279717;19;20019;-67
2024/01/21 21:09:31;;;;;;;6.70;3.50;;;;;;;1.72;100.00;99031.91;15278607;19;20066;-67
2024/01/21 21:14:58;;;;;;;4.78;3.40;;;;;;;1.67;100.00;99021.56;15278934;19;20018;-67
2024/01/21 21:20:23;;;;;;;5.03;3.28;;;;;;;1.62;100.00;99005.06;15278217;19;20531;-67
2024/01/21 21:25:47;;;;;;;5.15;3.40;;;;;;;1.56;100.00;98999.25;15279148;19;20029;-67
2024/01/21 21:31:21;;;;;;;5.00;3.30;;;;;;;1.51;100.00;98987.09;15283724;19;20426;-66
2024/01/21 21:36:46;;;;;;;3.85;2.97;;;;;;;1.45;100.00;98960.91;15280845;19;20667;-67
2024/01/21 21:42:11;;;;;;;4.22;3.10;;;;;;;1.36;100.00;98964.06;15276948;19;20018;-68
2024/01/21 21:47:39;;;;;;;4.97;3.13;;;;;;;1.43;100.00;98968.09;15286798;19;20022;-61
2024/01/21 21:53:05;;;;;;;3.83;2.60;;;;;;;1.75;100.00;98961.84;15285127;19;20595;-62
2024/01/21 21:58:30;;;;;;;4.40;2.80;;;;;;;1.83;100.00;98959.56;15278062;19;20440;-63
2024/01/21 22:03:57;;;;;;;4.47;2.70;;;;;;;1.71;100.00;98934.56;15275882;19;20041;-64
2024/01/21 22:09:22;;;;;;;4.57;2.60;;;;;;;1.60;100.00;98937.03;15282596;19;20020;-64
2024/01/21 22:14:41;;;;;;;4.68;2.55;;;;;;;1.54;100.00;98912.56;15274076;19;20362;-65
2024/01/21 22:20:11;;;;;;;4.07;2.58;;;;;;;1.50;100.00;98899.56;15275503;19;20025;-63
2024/01/21 22:25:36;;;;;;;3.28;2.65;;;;;;;1.57;100.00;98892.09;15277051;19;20448;-62
2024/01/21 22:31:08;;;;;;;3.78;2.42;;;;;;;1.61;100.00;98872.34;15277387;19;20010;-61
2024/01/21 22:36:36;;;;;;;3.33;2.30;;;;;;;1.65;100.00;98872.06;15276041;19;20015;-64
2024/01/21 22:42:01;;;;;;;4.20;2.35;;;;;;;1.68;100.00;98866.56;15280688;19;20036;-66
2024/01/21 22:47:26;;;;;;;3.65;2.40;;;;;;;1.56;100.00;98866.47;15272339;19;20018;-66
2024/01/21 22:52:53;;;;;;;4.18;2.20;;;;;;;1.59;100.00;98851.19;15281279;19;20355;-65
2024/01/21 22:58:18;;;;;;;4.07;2.58;;;;;;;1.59;100.00;98839.72;15273244;19;20017;-65
2024/01/21 23:03:42;;;;;;;5.07;2.60;;;;;;;1.52;100.00;98812.69;15278830;19;20015;-65
2024/01/21 23:09:10;;;;;;;3.00;2.05;;;;;;;1.53;100.00;98817.91;15273833;19;20024;-65
2024/01/21 23:14:34;;;;;;;5.43;2.53;;;;;;;1.65;100.00;98813.63;15273840;19;20019;-65
2024/01/21 23:20:03;;;;;;;3.17;2.20;;;;;;;1.74;100.00;98795.44;15269558;19;20033;-65
2024/01/21 23:25:30;;;;;;;3.50;2.42;;;;;;;1.80;100.00;98774.66;15274103;19;20014;-64
2024/01/21 23:30:56;;;;;;;5.78;2.80;;;;;;;1.88;100.00;98757.34;15272946;19;20022;-65
2024/01/21 23:36:21;;;;;;;4.13;2.47;;;;;;;1.97;100.00;98759.41;15274524;19;20624;-66
2024/01/21 23:41:49;;;;;;;3.65;2.20;;;;;;;2.06;100.00;98755.31;15302645;19;20029;-66
2024/01/21 23:47:13;;;;;;;3.95;2.65;;;;;;;2.11;100.00;98745.25;15045752;19;5001201;-66
2024/01/21 23:52:38;;;;;;;4.22;2.47;;;;;;;2.18;100.00;98735.06;15302970;19;20340;-66
2024/01/21 23:58:06;;;;;;;7.85;2.67;;;;;;;2.20;100.00;98723.38;15305443;19;20029;-66
